sensor_id;sensor_type;location;lat;lon;timestamp;temperature;humidity
20773;DHT22;10546;50.674;4.616;2023-01-25T06:09:56;1.00;99.90
20773;DHT22;10546;50.674;4.616;2023-01-25T06:12:22;1.10;99.90
20773;DHT22;10546;50.674;4.616;2023-01-25T06:14:47;1.10;99.90
20773;DHT22;10546;50.674;4.616;2023-01-25T06:17:13;1.10;99.90
20773;DHT22;10546;50.674;4.616;2023-01-25T06:19:39;1.40;99.90
20773;DHT22;10546;50.674;4.616;2023-01-25T06:22:05;1.40;99.90
20773;DHT22;10546;50.674;4.616;2023-01-25T06:24:33;1.50;99.90
20773;DHT22;10546;50.674;4.616;2023-01-25T06:26:59;1.60;99.90
20773;DHT22;10546;50.674;4.616;2023-01-25T06:29:24;1.30;99.90
20773;DHT22;10546;50.674;4.616;2023-01-25T06:31:50;1.30;99.90
20773;DHT22;10546;50.674;4.616;2023-01-25T06:34:16;1.20;99.90
20773;DHT22;10546;50.674;4.616;2023-01-25T06:36:41;1.30;99.90
20773;DHT22;10546;50.674;4.616;2023-01-25T06:39:07;1.10;99.90
20773;DHT22;10546;50.674;4.616;2023-01-25T06:41:33;0.80;99.90
20773;DHT22;10546;50.674;4.616;2023-01-25T06:43:59;0.90;99.90
20773;DHT22;10546;50.674;4.616;2023-01-25T06:46:25;1.00;99.90
20773;DHT22;10546;50.674;4.616;2023-01-25T06:48:50;0.90;99.90
20773;DHT22;10546;50.674;4.616;2023-01-25T06:51:17;0.90;99.90
20773;DHT22;10546;50.674;4.616;2023-01-25T06:53:44;1.10;99.90
20773;DHT22;10546;50.674;4.616;2023-01-25T06:56:12;0.90;99.90
20773;DHT22;10546;50.674;4.616;2023-01-25T06:58:40;1.00;99.90
20773;DHT22;10546;50.674;4.616;2023-01-25T07:01:17;1.00;99.90
20773;DHT22;10546;50.674;4.616;2023-01-25T07:03:50;1.00;99.90
20773;DHT22;10546;50.674;4.616;2023-01-25T07:06:16;0.90;99.90
20773;DHT22;10546;50.674;4.616;2023-01-25T07:08:42;0.90;99.90
20773;DHT22;10546;50.674;4.616;2023-01-25T07:11:09;0.80;99.90
20773;DHT22;10546;50.674;4.616;2023-01-25T07:13:41;0.80;99.90
20773;DHT22;10546;50.674;4.616;2023-01-25T07:16:10;0.70;99.90
20773;DHT22;10546;50.674;4.616;2023-01-25T07:18:36;0.70;99.90
20773;DHT22;10546;50.674;4.616;2023-01-25T07:23:36;0.90;99.90
20773;DHT22;10546;50.674;4.616;2023-01-25T07:26:03;1.00;99.90
20773;DHT22;10546;50.674;4.616;2023-01-25T07:28:30;1.00;99.90
20773;DHT22;10546;50.674;4.616;2023-01-25T07:31:03;1.30;99.90
20773;DHT22;10546;50.674;4.616;2023-01-25T07:33:28;1.10;99.90
20773;DHT22;10546;50.674;4.616;2023-01-25T07:35:59;1.10;99.90
20773;DHT22;10546;50.674;4.616;2023-01-25T07:38:24;0.90;99.90
20773;DHT22;10546;50.674;4.616;2023-01-25T07:40:51;0.90;99.90
20773;DHT22;10546;50.674;4.616;2023-01-25T07:43:17;0.90;99.90
20773;DHT22;10546;50.674;4.616;2023-01-25T07:45:44;0.60;99.90
20773;DHT22;10546;50.674;4.616;2023-01-25T07:48:13;0.80;99.90
20773;DHT22;10546;50.674;4.616;2023-01-25T07:50:39;1.10;99.90
20773;DHT22;10546;50.674;4.616;2023-01-25T07:53:07;1.20;99.90
20773;DHT22;10546;50.674;4.616;2023-01-25T07:55:33;1.20;99.90
20773;DHT22;10546;50.674;4.616;2023-01-25T07:57:59;1.20;99.90
20773;DHT22;10546;50.674;4.616;2023-01-25T08:00:25;1.30;99.90
20773;DHT22;10546;50.674;4.616;2023-01-25T08:02:51;1.30;99.90
20773;DHT22;10546;50.674;4.616;2023-01-25T08:05:17;1.40;99.90
20773;DHT22;10546;50.674;4.616;2023-01-25T08:07:43;1.40;99.90
20773;DHT22;10546;50.674;4.616;2023-01-25T08:10:09;1.40;99.90
20773;DHT22;10546;50.674;4.616;2023-01-25T08:12:35;1.10;99.90
20773;DHT22;10546;50.674;4.616;2023-01-25T08:15:00;0.90;99.90
20773;DHT22;10546;50.674;4.616;2023-01-25T08:17:26;0.70;99.90
20773;DHT22;10546;50.674;4.616;2023-01-25T08:19:59;0.70;99.90
20773;DHT22;10546;50.674;4.616;2023-01-25T08:22:26;0.50;99.90
20773;DHT22;10546;50.674;4.616;2023-01-25T08:24:52;0.60;99.90
20773;DHT22;10546;50.674;4.616;2023-01-25T08:27:19;0.60;99.90
20773;DHT22;10546;50.674;4.616;2023-01-25T08:29:45;0.50;99.90
20773;DHT22;10546;50.674;4.616;2023-01-25T08:32:11;0.50;99.90
20773;DHT22;10546;50.674;4.616;2023-01-25T08:34:36;0.40;99.90
20773;DHT22;10546;50.674;4.616;2023-01-25T08:37:02;0.60;99.90
20773;DHT22;10546;50.674;4.616;2023-01-25T08:39:27;0.80;99.90
20773;DHT22;10546;50.674;4.616;2023-01-25T08:41:53;0.90;99.90
20773;DHT22;10546;50.674;4.616;2023-01-25T08:44:19;1.00;99.90
20773;DHT22;10546;50.674;4.616;2023-01-25T08:46:49;1.00;99.90
20773;DHT22;10546;50.674;4.616;2023-01-25T08:49:14;1.00;99.90
20773;DHT22;10546;50.674;4.616;2023-01-25T08:51:41;1.10;99.90
20773;DHT22;10546;50.674;4.616;2023-01-25T08:54:09;1.10;99.90
20773;DHT22;10546;50.674;4.616;2023-01-25T08:56:39;0.90;99.90
20773;DHT22;10546;50.674;4.616;2023-01-25T08:59:05;0.70;99.90
20773;DHT22;10546;50.674;4.616;2023-01-25T09:01:31;0.70;99.90
20773;DHT22;10546;50.674;4.616;2023-01-25T09:03:57;1.00;99.90
20773;DHT22;10546;50.674;4.616;2023-01-25T09:06:23;1.00;99.90
20773;DHT22;10546;50.674;4.616;2023-01-25T09:08:48;1.20;99.90
20773;DHT22;10546;50.674;4.616;2023-01-25T09:11:19;1.20;99.90
20773;DHT22;10546;50.674;4.616;2023-01-25T09:13:46;1.40;99.90
20773;DHT22;10546;50.674;4.616;2023-01-25T09:16:15;1.30;99.90
20773;DHT22;10546;50.674;4.616;2023-01-25T09:18:43;1.30;99.90
20773;DHT22;10546;50.674;4.616;2023-01-25T09:21:12;1.30;99.90
20773;DHT22;10546;50.674;4.616;2023-01-25T09:23:38;1.00;99.90
20773;DHT22;10546;50.674;4.616;2023-01-25T09:26:04;0.80;99.90
20773;DHT22;10546;50.674;4.616;2023-01-25T09:28:30;0.70;99.90
20773;DHT22;10546;50.674;4.616;2023-01-25T09:30:57;0.90;99.90
20773;DHT22;10546;50.674;4.616;2023-01-25T09:33:28;0.70;99.90
20773;DHT22;10546;50.674;4.616;2023-01-25T09:35:55;0.60;99.90
20773;DHT22;10546;50.674;4.616;2023-01-25T09:38:21;0.70;99.90
20773;DHT22;10546;50.674;4.616;2023-01-25T09:41:10;0.70;99.90
20773;DHT22;10546;50.674;4.616;2023-01-25T09:46:58;0.90;99.90
20773;DHT22;10546;50.674;4.616;2023-01-25T09:52:25;1.20;99.90
20773;DHT22;10546;50.674;4.616;2023-01-25T09:54:53;1.20;99.90
20773;DHT22;10546;50.674;4.616;2023-01-25T09:57:37;1.10;99.90
20773;DHT22;10546;50.674;4.616;2023-01-25T10:00:27;1.00;99.90
20773;DHT22;10546;50.674;4.616;2023-01-25T10:03:02;0.90;99.90
20773;DHT22;10546;50.674;4.616;2023-01-25T10:05:34;0.90;99.90
20773;DHT22;10546;50.674;4.616;2023-01-25T10:10:38;1.20;99.90
20773;DHT22;10546;50.674;4.616;2023-01-25T10:13:12;1.40;99.90
20773;DHT22;10546;50.674;4.616;2023-01-25T10:15:42;1.60;99.90
20773;DHT22;10546;50.674;4.616;2023-01-25T10:21:02;1.50;99.90
20773;DHT22;10546;50.674;4.616;2023-01-25T10:23:54;1.60;99.90
20773;DHT22;10546;50.674;4.616;2023-01-25T10:26:27;1.30;99.90
20773;DHT22;10546;50.674;4.616;2023-01-25T10:29:19;1.30;99.90
20773;DHT22;10546;50.674;4.616;2023-01-25T10:31:53;1.10;99.90
20773;DHT22;10546;50.674;4.616;2023-01-25T10:34:22;1.30;99.90
20773;DHT22;10546;50.674;4.616;2023-01-25T10:36:56;1.00;99.90
20773;DHT22;10546;50.674;4.616;2023-01-25T10:39:23;1.00;99.90
20773;DHT22;10546;50.674;4.616;2023-01-25T10:42:05;1.10;99.90
20773;DHT22;10546;50.674;4.616;2023-01-25T10:44:33;1.10;99.90
20773;DHT22;10546;50.674;4.616;2023-01-25T10:47:21;0.90;99.90
20773;DHT22;10546;50.674;4.616;2023-01-25T10:49:55;1.20;99.90
20773;DHT22;10546;50.674;4.616;2023-01-25T10:52:28;1.30;99.90
20773;DHT22;10546;50.674;4.616;2023-01-25T10:55:21;1.40;99.90
20773;DHT22;10546;50.674;4.616;2023-01-25T10:57:53;1.10;99.90
20773;DHT22;10546;50.674;4.616;2023-01-25T11:02:54;1.10;99.90
20773;DHT22;10546;50.674;4.616;2023-01-25T11:05:25;1.00;99.90
20773;DHT22;10546;50.674;4.616;2023-01-25T11:07:51;0.90;99.90
20773;DHT22;10546;50.674;4.616;2023-01-25T11:10:35;0.80;99.90
20773;DHT22;10546;50.674;4.616;2023-01-25T11:16:13;0.90;99.90
20773;DHT22;10546;50.674;4.616;2023-01-25T11:18:50;1.10;99.90
20773;DHT22;10546;50.674;4.616;2023-01-25T11:21:17;1.10;99.90
20773;DHT22;10546;50.674;4.616;2023-01-25T11:26:35;1.10;99.90
20773;DHT22;10546;50.674;4.616;2023-01-25T11:31:37;1.20;99.90
20773;DHT22;10546;50.674;4.616;2023-01-25T11:34:10;1.30;99.90
20773;DHT22;10546;50.674;4.616;2023-01-25T11:42:25;1.60;99.90
20773;DHT22;10546;50.674;4.616;2023-01-25T11:45:18;1.80;99.90
20773;DHT22;10546;50.674;4.616;2023-01-25T11:53:27;1.80;99.90
20773;DHT22;10546;50.674;4.616;2023-01-25T11:56:10;1.50;99.90
20773;DHT22;10546;50.674;4.616;2023-01-25T12:06:58;1.00;99.90
20773;DHT22;10546;50.674;4.616;2023-01-25T12:20:25;1.10;99.90
20773;DHT22;10546;50.674;4.616;2023-01-25T12:28:46;1.40;99.90
20773;DHT22;10546;50.674;4.616;2023-01-25T12:31:21;1.50;99.90
20773;DHT22;10546;50.674;4.616;2023-01-25T12:34:03;1.50;99.90
20773;DHT22;10546;50.674;4.616;2023-01-25T12:36:42;1.50;99.90
20773;DHT22;10546;50.674;4.616;2023-01-25T12:39:16;1.70;99.90
20773;DHT22;10546;50.674;4.616;2023-01-25T12:47:18;1.70;99.90
20773;DHT22;10546;50.674;4.616;2023-01-25T12:49:59;1.80;99.90
20773;DHT22;10546;50.674;4.616;2023-01-25T12:52:33;1.70;99.90
20773;DHT22;10546;50.674;4.616;2023-01-25T12:55:01;1.80;99.90
20773;DHT22;10546;50.674;4.616;2023-01-25T12:57:46;1.90;99.90
20773;DHT22;10546;50.674;4.616;2023-01-25T13:11:48;1.60;99.90
20773;DHT22;10546;50.674;4.616;2023-01-25T13:16:53;1.70;99.90
20773;DHT22;10546;50.674;4.616;2023-01-25T13:21:58;1.60;99.90
20773;DHT22;10546;50.674;4.616;2023-01-25T13:24:25;1.60;99.90
20773;DHT22;10546;50.674;4.616;2023-01-25T13:32:03;1.70;99.90
20773;DHT22;10546;50.674;4.616;2023-01-25T13:39:47;1.90;99.90
20773;DHT22;10546;50.674;4.616;2023-01-25T13:42:27;1.80;99.90
20773;DHT22;10546;50.674;4.616;2023-01-25T13:44:56;2.00;99.90
20773;DHT22;10546;50.674;4.616;2023-01-25T13:47:25;2.10;99.90
20773;DHT22;10546;50.674;4.616;2023-01-25T13:52:40;1.90;99.90
20773;DHT22;10546;50.674;4.616;2023-01-25T13:55:20;1.60;99.90
20773;DHT22;10546;50.674;4.616;2023-01-25T13:57:45;1.50;99.90
20773;DHT22;10546;50.674;4.616;2023-01-25T14:00:15;1.60;99.90
20773;DHT22;10546;50.674;4.616;2023-01-25T14:02:42;1.40;99.90
20773;DHT22;10546;50.674;4.616;2023-01-25T14:05:23;1.50;99.90
20773;DHT22;10546;50.674;4.616;2023-01-25T14:07:52;1.50;99.90
20773;DHT22;10546;50.674;4.616;2023-01-25T14:10:20;1.50;99.90
20773;DHT22;10546;50.674;4.616;2023-01-25T14:12:58;1.50;99.90
20773;DHT22;10546;50.674;4.616;2023-01-25T14:15:31;1.40;99.90
20773;DHT22;10546;50.674;4.616;2023-01-25T14:18:16;1.40;99.90
20773;DHT22;10546;50.674;4.616;2023-01-25T14:20:44;1.40;99.90
20773;DHT22;10546;50.674;4.616;2023-01-25T14:23:28;1.60;99.90
20773;DHT22;10546;50.674;4.616;2023-01-25T14:25:55;1.30;99.90
20773;DHT22;10546;50.674;4.616;2023-01-25T14:28:24;1.30;99.90
20773;DHT22;10546;50.674;4.616;2023-01-25T14:30:55;1.10;99.90
20773;DHT22;10546;50.674;4.616;2023-01-25T14:33:25;0.80;99.90
20773;DHT22;10546;50.674;4.616;2023-01-25T14:35:53;0.70;99.90
20773;DHT22;10546;50.674;4.616;2023-01-25T14:43:30;1.10;99.90
20773;DHT22;10546;50.674;4.616;2023-01-25T14:45:56;1.10;99.90
20773;DHT22;10546;50.674;4.616;2023-01-25T14:48:39;1.40;99.90
20773;DHT22;10546;50.674;4.616;2023-01-25T14:51:23;1.50;99.90
20773;DHT22;10546;50.674;4.616;2023-01-25T14:54:04;1.50;99.90
20773;DHT22;10546;50.674;4.616;2023-01-25T14:57:05;1.40;99.90
20773;DHT22;10546;50.674;4.616;2023-01-25T14:59:37;1.40;99.90
20773;DHT22;10546;50.674;4.616;2023-01-25T15:02:23;1.30;99.90
20773;DHT22;10546;50.674;4.616;2023-01-25T15:04:57;1.20;99.90
20773;DHT22;10546;50.674;4.616;2023-01-25T15:10:30;1.30;99.90
20773;DHT22;10546;50.674;4.616;2023-01-25T15:15:55;1.30;99.90
20773;DHT22;10546;50.674;4.616;2023-01-25T15:18:53;1.10;99.90
20773;DHT22;10546;50.674;4.616;2023-01-25T15:21:30;1.20;99.90
20773;DHT22;10546;50.674;4.616;2023-01-25T15:24:04;1.20;99.90
20773;DHT22;10546;50.674;4.616;2023-01-25T15:26:34;1.10;99.90
20773;DHT22;10546;50.674;4.616;2023-01-25T15:29:14;1.10;99.90
20773;DHT22;10546;50.674;4.616;2023-01-25T15:31:41;1.00;99.90
20773;DHT22;10546;50.674;4.616;2023-01-25T15:34:15;1.00;99.90
20773;DHT22;10546;50.674;4.616;2023-01-25T15:36:41;1.10;99.90
20773;DHT22;10546;50.674;4.616;2023-01-25T15:39:14;1.30;99.90
20773;DHT22;10546;50.674;4.616;2023-01-25T15:41:41;1.10;99.90
20773;DHT22;10546;50.674;4.616;2023-01-25T15:44:07;0.90;99.90
20773;DHT22;10546;50.674;4.616;2023-01-25T15:46:34;0.80;99.90
20773;DHT22;10546;50.674;4.616;2023-01-25T15:49:06;0.80;99.90
20773;DHT22;10546;50.674;4.616;2023-01-25T15:51:32;1.00;99.90
20773;DHT22;10546;50.674;4.616;2023-01-25T15:53:58;1.00;99.90
20773;DHT22;10546;50.674;4.616;2023-01-25T15:56:28;1.10;99.90
20773;DHT22;10546;50.674;4.616;2023-01-25T15:59:00;1.10;99.90
20773;DHT22;10546;50.674;4.616;2023-01-25T16:01:29;1.10;99.90
20773;DHT22;10546;50.674;4.616;2023-01-25T16:03:57;0.90;99.90
20773;DHT22;10546;50.674;4.616;2023-01-25T16:06:49;1.10;99.90
20773;DHT22;10546;50.674;4.616;2023-01-25T16:11:47;0.90;99.90
20773;DHT22;10546;50.674;4.616;2023-01-25T16:14:15;1.00;99.90
20773;DHT22;10546;50.674;4.616;2023-01-25T16:16:47;0.90;99.90
20773;DHT22;10546;50.674;4.616;2023-01-25T16:19:15;1.20;99.90
20773;DHT22;10546;50.674;4.616;2023-01-25T16:21:41;1.00;99.90
20773;DHT22;10546;50.674;4.616;2023-01-25T16:24:08;0.90;99.90
20773;DHT22;10546;50.674;4.616;2023-01-25T16:26:36;1.00;99.90
20773;DHT22;10546;50.674;4.616;2023-01-25T16:29:03;1.10;99.90
20773;DHT22;10546;50.674;4.616;2023-01-25T16:31:29;0.90;99.90
20773;DHT22;10546;50.674;4.616;2023-01-25T16:33:55;0.90;99.90
20773;DHT22;10546;50.674;4.616;2023-01-25T16:36:21;0.80;99.90
20773;DHT22;10546;50.674;4.616;2023-01-25T16:38:48;0.70;99.90
20773;DHT22;10546;50.674;4.616;2023-01-25T16:41:14;0.60;99.90
20773;DHT22;10546;50.674;4.616;2023-01-25T16:43:41;0.60;99.90
20773;DHT22;10546;50.674;4.616;2023-01-25T16:46:25;0.60;99.90
20773;DHT22;10546;50.674;4.616;2023-01-25T16:48:51;0.60;99.90
20773;DHT22;10546;50.674;4.616;2023-01-25T16:51:23;0.60;99.90
20773;DHT22;10546;50.674;4.616;2023-01-25T16:53:50;0.40;99.90
20773;DHT22;10546;50.674;4.616;2023-01-25T16:56:17;0.50;99.90
20773;DHT22;10546;50.674;4.616;2023-01-25T16:58:44;0.30;99.90
20773;DHT22;10546;50.674;4.616;2023-01-25T17:01:11;0.40;99.90
20773;DHT22;10546;50.674;4.616;2023-01-25T17:03:37;0.40;99.90
20773;DHT22;10546;50.674;4.616;2023-01-25T17:06:04;0.40;99.90
20773;DHT22;10546;50.674;4.616;2023-01-25T17:08:30;0.40;99.90
20773;DHT22;10546;50.674;4.616;2023-01-25T17:10:59;0.40;99.90
20773;DHT22;10546;50.674;4.616;2023-01-25T17:13:29;0.40;99.90
20773;DHT22;10546;50.674;4.616;2023-01-25T17:15:55;0.40;99.90
20773;DHT22;10546;50.674;4.616;2023-01-25T17:18:21;0.40;99.90
20773;DHT22;10546;50.674;4.616;2023-01-25T17:20:56;0.40;99.90
20773;DHT22;10546;50.674;4.616;2023-01-25T17:23:21;0.30;99.90
20773;DHT22;10546;50.674;4.616;2023-01-25T17:25:47;0.20;99.90
20773;DHT22;10546;50.674;4.616;2023-01-25T17:28:13;0.20;99.90
20773;DHT22;10546;50.674;4.616;2023-01-25T17:30:39;0.10;99.90
20773;DHT22;10546;50.674;4.616;2023-01-25T17:33:05;0.10;99.90
20773;DHT22;10546;50.674;4.616;2023-01-25T17:35:34;0.20;99.90
20773;DHT22;10546;50.674;4.616;2023-01-25T17:38:00;0.40;99.90
20773;DHT22;10546;50.674;4.616;2023-01-25T17:40:25;0.40;99.90
20773;DHT22;10546;50.674;4.616;2023-01-25T17:42:51;0.40;99.90
20773;DHT22;10546;50.674;4.616;2023-01-25T17:45:17;0.50;99.90
20773;DHT22;10546;50.674;4.616;2023-01-25T17:47:42;0.50;99.90
20773;DHT22;10546;50.674;4.616;2023-01-25T17:50:08;0.50;99.90
20773;DHT22;10546;50.674;4.616;2023-01-25T17:52:34;0.60;99.90
20773;DHT22;10546;50.674;4.616;2023-01-25T17:55:00;0.40;99.90
20773;DHT22;10546;50.674;4.616;2023-01-25T17:57:28;0.40;99.90
20773;DHT22;10546;50.674;4.616;2023-01-25T17:59:55;0.40;99.90
20773;DHT22;10546;50.674;4.616;2023-01-25T18:02:21;0.30;99.90
20773;DHT22;10546;50.674;4.616;2023-01-25T18:04:47;0.30;99.90
20773;DHT22;10546;50.674;4.616;2023-01-25T18:07:12;0.30;99.90
20773;DHT22;10546;50.674;4.616;2023-01-25T18:09:38;0.30;99.90
20773;DHT22;10546;50.674;4.616;2023-01-25T18:12:07;0.30;99.90
20773;DHT22;10546;50.674;4.616;2023-01-25T18:14:33;0.20;99.90
20773;DHT22;10546;50.674;4.616;2023-01-25T18:16:59;0.30;99.90
20773;DHT22;10546;50.674;4.616;2023-01-25T18:19:25;0.20;99.90
20773;DHT22;10546;50.674;4.616;2023-01-25T18:21:55;0.30;99.90
20773;DHT22;10546;50.674;4.616;2023-01-25T18:24:30;0.40;99.90
20773;DHT22;10546;50.674;4.616;2023-01-25T18:27:04;0.40;99.90
20773;DHT22;10546;50.674;4.616;2023-01-25T18:32:03;0.40;99.90
20773;DHT22;10546;50.674;4.616;2023-01-25T18:34:29;0.40;99.90
20773;DHT22;10546;50.674;4.616;2023-01-25T18:36:55;0.50;99.90
20773;DHT22;10546;50.674;4.616;2023-01-25T18:39:24;0.30;99.90
20773;DHT22;10546;50.674;4.616;2023-01-25T18:41:50;0.50;99.90
20773;DHT22;10546;50.674;4.616;2023-01-25T18:44:15;0.50;99.90
20773;DHT22;10546;50.674;4.616;2023-01-25T18:46:41;0.50;99.90
20773;DHT22;10546;50.674;4.616;2023-01-25T18:49:07;0.50;99.90
20773;DHT22;10546;50.674;4.616;2023-01-25T18:51:33;0.40;99.90
20773;DHT22;10546;50.674;4.616;2023-01-25T18:53:59;0.40;99.90
20773;DHT22;10546;50.674;4.616;2023-01-25T18:56:25;0.30;99.90
20773;DHT22;10546;50.674;4.616;2023-01-25T18:58:53;0.20;99.90
20773;DHT22;10546;50.674;4.616;2023-01-25T19:01:21;0.10;99.90
20773;DHT22;10546;50.674;4.616;2023-01-25T19:03:48;0.00;99.90
20773;DHT22;10546;50.674;4.616;2023-01-25T19:06:15;-0.10;99.90
20773;DHT22;10546;50.674;4.616;2023-01-25T19:08:40;0.00;99.90
20773;DHT22;10546;50.674;4.616;2023-01-25T19:11:13;0.10;99.90
20773;DHT22;10546;50.674;4.616;2023-01-25T19:13:40;0.10;99.90
20773;DHT22;10546;50.674;4.616;2023-01-25T19:16:20;-0.10;99.90
20773;DHT22;10546;50.674;4.616;2023-01-25T19:18:49;-0.20;99.90
20773;DHT22;10546;50.674;4.616;2023-01-25T19:21:23;-0.20;99.90
20773;DHT22;10546;50.674;4.616;2023-01-25T19:23:50;-0.10;99.90
20773;DHT22;10546;50.674;4.616;2023-01-25T19:26:17;-0.10;99.90
20773;DHT22;10546;50.674;4.616;2023-01-25T19:28:44;-0.10;99.90
20773;DHT22;10546;50.674;4.616;2023-01-25T19:31:29;-0.10;99.90
20773;DHT22;10546;50.674;4.616;2023-01-25T19:34:02;-0.20;99.90
20773;DHT22;10546;50.674;4.616;2023-01-25T19:36:30;0.10;99.90
20773;DHT22;10546;50.674;4.616;2023-01-25T19:38:56;0.20;99.90
20773;DHT22;10546;50.674;4.616;2023-01-25T19:41:25;0.30;99.90
20773;DHT22;10546;50.674;4.616;2023-01-25T19:43:52;0.10;99.90
20773;DHT22;10546;50.674;4.616;2023-01-25T19:46:20;0.00;99.90
20773;DHT22;10546;50.674;4.616;2023-01-25T19:48:47;0.10;99.90
20773;DHT22;10546;50.674;4.616;2023-01-25T19:51:16;0.00;99.90
20773;DHT22;10546;50.674;4.616;2023-01-25T19:53:47;-0.10;99.90
20773;DHT22;10546;50.674;4.616;2023-01-25T19:56:17;-0.20;99.90
20773;DHT22;10546;50.674;4.616;2023-01-25T19:58:46;-0.20;99.90
20773;DHT22;10546;50.674;4.616;2023-01-25T20:01:26;-0.10;99.90
20773;DHT22;10546;50.674;4.616;2023-01-25T20:03:53;0.00;99.90
20773;DHT22;10546;50.674;4.616;2023-01-25T20:06:19;0.00;99.90
20773;DHT22;10546;50.674;4.616;2023-01-25T20:08:46;-0.10;99.90
20773;DHT22;10546;50.674;4.616;2023-01-25T20:11:23;0.00;99.90
20773;DHT22;10546;50.674;4.616;2023-01-25T20:13:52;0.00;99.90
20773;DHT22;10546;50.674;4.616;2023-01-25T20:16:18;0.10;99.90
20773;DHT22;10546;50.674;4.616;2023-01-25T20:18:46;0.00;99.90
20773;DHT22;10546;50.674;4.616;2023-01-25T20:21:15;0.00;99.90
20773;DHT22;10546;50.674;4.616;2023-01-25T20:23:43;0.00;99.90
20773;DHT22;10546;50.674;4.616;2023-01-25T20:26:15;0.30;99.90
20773;DHT22;10546;50.674;4.616;2023-01-25T20:28:43;0.20;99.90
20773;DHT22;10546;50.674;4.616;2023-01-25T20:33:54;0.20;99.90
20773;DHT22;10546;50.674;4.616;2023-01-25T20:36:20;0.30;99.90
20773;DHT22;10546;50.674;4.616;2023-01-25T20:38:46;0.40;99.90
20773;DHT22;10546;50.674;4.616;2023-01-25T20:41:13;0.20;99.90
20773;DHT22;10546;50.674;4.616;2023-01-25T20:43:51;0.10;99.90
20773;DHT22;10546;50.674;4.616;2023-01-25T20:46:19;0.10;99.90
20773;DHT22;10546;50.674;4.616;2023-01-25T20:48:45;0.00;99.90
20773;DHT22;10546;50.674;4.616;2023-01-25T20:51:12;0.00;99.90
20773;DHT22;10546;50.674;4.616;2023-01-25T20:53:40;-0.10;99.90
20773;DHT22;10546;50.674;4.616;2023-01-25T20:56:08;0.00;99.90
20773;DHT22;10546;50.674;4.616;2023-01-25T20:58:33;-0.10;99.90
20773;DHT22;10546;50.674;4.616;2023-01-25T21:00:59;-0.20;99.90
20773;DHT22;10546;50.674;4.616;2023-01-25T21:03:25;-0.10;99.90
20773;DHT22;10546;50.674;4.616;2023-01-25T21:05:52;-0.30;99.90
20773;DHT22;10546;50.674;4.616;2023-01-25T21:08:22;-0.30;99.90
20773;DHT22;10546;50.674;4.616;2023-01-25T21:10:53;-0.40;99.90
20773;DHT22;10546;50.674;4.616;2023-01-25T21:13:19;-0.30;99.90
20773;DHT22;10546;50.674;4.616;2023-01-25T21:18:30;-0.30;99.90
20773;DHT22;10546;50.674;4.616;2023-01-25T21:21:04;-0.20;99.90
20773;DHT22;10546;50.674;4.616;2023-01-25T21:23:30;-0.20;99.90
20773;DHT22;10546;50.674;4.616;2023-01-25T21:25:58;-0.30;99.90
20773;DHT22;10546;50.674;4.616;2023-01-25T21:28:24;-0.30;99.90
20773;DHT22;10546;50.674;4.616;2023-01-25T21:30:50;-0.30;99.90
20773;DHT22;10546;50.674;4.616;2023-01-25T21:33:16;-0.30;99.90
20773;DHT22;10546;50.674;4.616;2023-01-25T21:35:41;-0.20;99.90
20773;DHT22;10546;50.674;4.616;2023-01-25T21:38:07;-0.20;99.90
20773;DHT22;10546;50.674;4.616;2023-01-25T21:40:33;-0.20;99.90
20773;DHT22;10546;50.674;4.616;2023-01-25T21:42:58;-0.20;99.90
20773;DHT22;10546;50.674;4.616;2023-01-25T21:45:24;-0.20;99.90
20773;DHT22;10546;50.674;4.616;2023-01-25T21:48:09;-0.20;99.90
20773;DHT22;10546;50.674;4.616;2023-01-25T21:50:36;-0.20;99.90
20773;DHT22;10546;50.674;4.616;2023-01-25T21:53:21;-0.20;99.90
20773;DHT22;10546;50.674;4.616;2023-01-25T21:55:46;-0.20;99.90
20773;DHT22;10546;50.674;4.616;2023-01-25T21:58:12;-0.30;99.90
20773;DHT22;10546;50.674;4.616;2023-01-25T22:00:38;-0.30;99.90
20773;DHT22;10546;50.674;4.616;2023-01-25T22:03:04;-0.30;99.90
20773;DHT22;10546;50.674;4.616;2023-01-25T22:05:30;-0.30;99.90
20773;DHT22;10546;50.674;4.616;2023-01-25T22:07:58;-0.30;99.90
20773;DHT22;10546;50.674;4.616;2023-01-25T22:10:23;-0.40;99.90
20773;DHT22;10546;50.674;4.616;2023-01-25T22:12:51;-0.40;99.90
20773;DHT22;10546;50.674;4.616;2023-01-25T22:15:16;-0.50;99.90
20773;DHT22;10546;50.674;4.616;2023-01-25T22:17:42;-0.30;99.90
20773;DHT22;10546;50.674;4.616;2023-01-25T22:20:08;-0.40;99.90
20773;DHT22;10546;50.674;4.616;2023-01-25T22:22:35;-0.40;99.90
20773;DHT22;10546;50.674;4.616;2023-01-25T22:25:00;-0.30;99.90
20773;DHT22;10546;50.674;4.616;2023-01-25T22:27:30;-0.20;99.90
20773;DHT22;10546;50.674;4.616;2023-01-25T22:30:01;-0.20;99.90
20773;DHT22;10546;50.674;4.616;2023-01-25T22:32:26;-0.30;99.90
20773;DHT22;10546;50.674;4.616;2023-01-25T22:34:52;-0.30;99.90
20773;DHT22;10546;50.674;4.616;2023-01-25T22:37:19;-0.20;99.90
20773;DHT22;10546;50.674;4.616;2023-01-25T22:39:45;-0.20;99.90
20773;DHT22;10546;50.674;4.616;2023-01-25T22:42:10;-0.20;99.90
20773;DHT22;10546;50.674;4.616;2023-01-25T22:44:36;-0.20;99.90
20773;DHT22;10546;50.674;4.616;2023-01-25T22:47:01;-0.20;99.90
20773;DHT22;10546;50.674;4.616;2023-01-25T22:49:27;-0.10;99.90
20773;DHT22;10546;50.674;4.616;2023-01-25T22:51:52;0.00;99.90
20773;DHT22;10546;50.674;4.616;2023-01-25T22:54:18;-0.10;99.90
20773;DHT22;10546;50.674;4.616;2023-01-25T22:56:44;0.00;99.90
20773;DHT22;10546;50.674;4.616;2023-01-25T22:59:10;0.00;99.90
20773;DHT22;10546;50.674;4.616;2023-01-25T23:01:36;0.00;99.90
20773;DHT22;10546;50.674;4.616;2023-01-25T23:04:02;0.10;99.90
20773;DHT22;10546;50.674;4.616;2023-01-25T23:06:30;0.20;99.90
20773;DHT22;10546;50.674;4.616;2023-01-25T23:08:57;0.10;99.90
20773;DHT22;10546;50.674;4.616;2023-01-25T23:11:29;0.30;99.90
20773;DHT22;10546;50.674;4.616;2023-01-25T23:13:57;0.30;99.90
20773;DHT22;10546;50.674;4.616;2023-01-25T23:16:43;0.10;99.90
20773;DHT22;10546;50.674;4.616;2023-01-25T23:19:09;0.10;99.90
20773;DHT22;10546;50.674;4.616;2023-01-25T23:21:34;0.00;99.90
20773;DHT22;10546;50.674;4.616;2023-01-25T23:24:01;0.10;99.90
20773;DHT22;10546;50.674;4.616;2023-01-25T23:26:28;0.10;99.90
20773;DHT22;10546;50.674;4.616;2023-01-25T23:29:04;0.00;99.90
20773;DHT22;10546;50.674;4.616;2023-01-25T23:31:32;0.10;99.90
20773;DHT22;10546;50.674;4.616;2023-01-25T23:33:59;0.10;99.90
